sensor_id;sensor_type;location;lat;lon;timestamp;pressure;altitude;pressure_sealevel;temperature;humidity
62847;BME280;49477;35.676;139.586;2023-05-20T00:01:46;100322.00;;;25.43;45.33
62847;BME280;49477;35.676;139.586;2023-05-20T00:04:15;100330.92;;;25.64;44.87
62847;BME280;49477;35.676;139.586;2023-05-20T00:06:45;100330.18;;;25.60;45.18
62847;BME280;49477;35.676;139.586;2023-05-20T00:09:14;100326.31;;;24.97;46.71
62847;BME280;49477;35.676;139.586;2023-05-20T00:11:44;100330.83;;;25.46;46.04
62847;BME280;49477;35.676;139.586;2023-05-20T00:14:13;100336.29;;;25.05;46.72
62847;BME280;49477;35.676;139.586;2023-05-20T00:16:43;100339.82;;;24.99;46.89
62847;BME280;49477;35.676;139.586;2023-05-20T00:19:13;100341.23;;;25.16;46.07
62847;BME280;49477;35.676;139.586;2023-05-20T00:21:42;100343.16;;;25.78;46.43
62847;BME280;49477;35.676;139.586;2023-05-20T00:24:11;100345.70;;;25.50;45.93
62847;BME280;49477;35.676;139.586;2023-05-20T00:26:41;100349.45;;;25.89;45.38
62847;BME280;49477;35.676;139.586;2023-05-20T00:29:10;100352.85;;;25.00;46.39
62847;BME280;49477;35.676;139.586;2023-05-20T00:31:40;100354.26;;;25.43;45.75
62847;BME280;49477;35.676;139.586;2023-05-20T00:34:09;100354.77;;;25.14;46.09
62847;BME280;49477;35.676;139.586;2023-05-20T00:36:39;100359.27;;;25.85;44.92
62847;BME280;49477;35.676;139.586;2023-05-20T00:39:08;100361.06;;;25.47;45.71
62847;BME280;49477;35.676;139.586;2023-05-20T00:41:38;100361.24;;;25.32;46.17
62847;BME280;49477;35.676;139.586;2023-05-20T00:44:07;100361.50;;;25.33;45.87
62847;BME280;49477;35.676;139.586;2023-05-20T00:46:37;100361.36;;;25.85;45.93
62847;BME280;49477;35.676;139.586;2023-05-20T00:49:06;100369.27;;;25.41;45.47
62847;BME280;49477;35.676;139.586;2023-05-20T00:51:36;100376.55;;;25.27;46.16
62847;BME280;49477;35.676;139.586;2023-05-20T00:54:05;100381.02;;;25.25;46.21
62847;BME280;49477;35.676;139.586;2023-05-20T00:56:34;100389.15;;;25.16;46.33
62847;BME280;49477;35.676;139.586;2023-05-20T00:59:04;100388.68;;;25.86;45.35
62847;BME280;49477;35.676;139.586;2023-05-20T01:01:33;100392.38;;;25.86;45.89
62847;BME280;49477;35.676;139.586;2023-05-20T01:04:03;100395.63;;;25.70;45.50
62847;BME280;49477;35.676;139.586;2023-05-20T01:06:32;100400.84;;;25.46;45.93
62847;BME280;49477;35.676;139.586;2023-05-20T01:09:02;100404.23;;;25.55;45.64
62847;BME280;49477;35.676;139.586;2023-05-20T01:11:36;100406.33;;;25.70;45.78
62847;BME280;49477;35.676;139.586;2023-05-20T01:14:08;100408.41;;;25.52;45.69
62847;BME280;49477;35.676;139.586;2023-05-20T01:16:39;100412.20;;;25.39;46.01
62847;BME280;49477;35.676;139.586;2023-05-20T01:19:21;100411.17;;;25.40;46.02
62847;BME280;49477;35.676;139.586;2023-05-20T01:21:55;100410.90;;;25.17;46.59
62847;BME280;49477;35.676;139.586;2023-05-20T01:24:25;100413.56;;;25.22;46.65
62847;BME280;49477;35.676;139.586;2023-05-20T01:26:54;100415.80;;;25.52;45.69
62847;BME280;49477;35.676;139.586;2023-05-20T01:29:24;100421.50;;;25.80;45.79
62847;BME280;49477;35.676;139.586;2023-05-20T01:31:53;100425.34;;;25.68;45.67
62847;BME280;49477;35.676;139.586;2023-05-20T01:34:25;100433.52;;;25.53;45.85
62847;BME280;49477;35.676;139.586;2023-05-20T01:36:55;100433.83;;;25.91;45.53
62847;BME280;49477;35.676;139.586;2023-05-20T01:39:25;100436.43;;;25.48;46.08
62847;BME280;49477;35.676;139.586;2023-05-20T01:41:56;100436.53;;;25.87;45.05
62847;BME280;49477;35.676;139.586;2023-05-20T01:44:26;100435.51;;;26.41;44.22
62847;BME280;49477;35.676;139.586;2023-05-20T01:46:55;100434.46;;;25.61;44.92
62847;BME280;49477;35.676;139.586;2023-05-20T01:49:24;100434.94;;;26.01;44.53
62847;BME280;49477;35.676;139.586;2023-05-20T01:51:54;100434.92;;;26.17;44.26
62847;BME280;49477;35.676;139.586;2023-05-20T01:54:23;100438.31;;;26.28;43.84
62847;BME280;49477;35.676;139.586;2023-05-20T01:56:52;100440.09;;;26.11;44.53
62847;BME280;49477;35.676;139.586;2023-05-20T01:59:22;100439.76;;;26.46;43.55
62847;BME280;49477;35.676;139.586;2023-05-20T02:01:51;100439.88;;;26.27;43.95
62847;BME280;49477;35.676;139.586;2023-05-20T02:04:21;100434.90;;;26.92;42.58
62847;BME280;49477;35.676;139.586;2023-05-20T02:06:50;100434.78;;;26.45;43.86
62847;BME280;49477;35.676;139.586;2023-05-20T02:09:20;100438.48;;;26.62;43.66
62847;BME280;49477;35.676;139.586;2023-05-20T02:11:49;100441.48;;;26.17;44.68
62847;BME280;49477;35.676;139.586;2023-05-20T02:14:19;100436.48;;;26.07;45.18
62847;BME280;49477;35.676;139.586;2023-05-20T02:16:48;100432.23;;;26.00;45.45
62847;BME280;49477;35.676;139.586;2023-05-20T02:19:17;100429.68;;;25.97;45.72
62847;BME280;49477;35.676;139.586;2023-05-20T02:21:47;100430.43;;;25.97;45.70
62847;BME280;49477;35.676;139.586;2023-05-20T02:24:17;100428.49;;;25.58;45.86
62847;BME280;49477;35.676;139.586;2023-05-20T02:26:47;100424.45;;;25.47;45.83
62847;BME280;49477;35.676;139.586;2023-05-20T02:29:15;100424.53;;;25.60;45.83
62847;BME280;49477;35.676;139.586;2023-05-20T02:31:45;100426.99;;;25.48;46.20
62847;BME280;49477;35.676;139.586;2023-05-20T02:34:16;100426.17;;;25.47;46.37
62847;BME280;49477;35.676;139.586;2023-05-20T02:36:45;100421.46;;;25.69;46.17
62847;BME280;49477;35.676;139.586;2023-05-20T02:39:15;100415.04;;;25.51;46.33
62847;BME280;49477;35.676;139.586;2023-05-20T02:41:44;100414.37;;;25.16;46.74
62847;BME280;49477;35.676;139.586;2023-05-20T02:44:13;100413.75;;;25.47;46.02
62847;BME280;49477;35.676;139.586;2023-05-20T02:46:43;100409.66;;;25.23;46.65
62847;BME280;49477;35.676;139.586;2023-05-20T02:49:12;100407.05;;;25.18;46.51
62847;BME280;49477;35.676;139.586;2023-05-20T02:51:42;100409.68;;;25.30;46.22
62847;BME280;49477;35.676;139.586;2023-05-20T02:54:12;100405.03;;;25.00;46.61
62847;BME280;49477;35.676;139.586;2023-05-20T02:56:41;100404.06;;;25.28;46.52
62847;BME280;49477;35.676;139.586;2023-05-20T02:59:10;100404.91;;;25.30;46.31
62847;BME280;49477;35.676;139.586;2023-05-20T03:01:40;100402.37;;;25.56;46.77
62847;BME280;49477;35.676;139.586;2023-05-20T03:04:09;100402.71;;;25.32;46.52
62847;BME280;49477;35.676;139.586;2023-05-20T03:06:39;100396.18;;;25.64;44.69
62847;BME280;49477;35.676;139.586;2023-05-20T03:09:08;100394.92;;;25.57;44.86
62847;BME280;49477;35.676;139.586;2023-05-20T03:11:38;100397.67;;;26.00;44.32
62847;BME280;49477;35.676;139.586;2023-05-20T03:14:07;100391.15;;;26.38;43.42
62847;BME280;49477;35.676;139.586;2023-05-20T03:16:37;100387.54;;;26.43;43.56
62847;BME280;49477;35.676;139.586;2023-05-20T03:19:06;100384.15;;;26.11;43.55
62847;BME280;49477;35.676;139.586;2023-05-20T03:21:35;100385.02;;;26.71;42.82
62847;BME280;49477;35.676;139.586;2023-05-20T03:24:05;100384.06;;;26.51;43.61
62847;BME280;49477;35.676;139.586;2023-05-20T03:26:34;100382.84;;;26.71;43.33
62847;BME280;49477;35.676;139.586;2023-05-20T03:29:05;100378.31;;;26.65;42.60
62847;BME280;49477;35.676;139.586;2023-05-20T03:31:34;100379.64;;;26.62;43.20
62847;BME280;49477;35.676;139.586;2023-05-20T03:34:04;100379.66;;;27.07;42.39
62847;BME280;49477;35.676;139.586;2023-05-20T03:36:33;100378.56;;;26.66;42.59
62847;BME280;49477;35.676;139.586;2023-05-20T03:39:04;100377.70;;;26.41;43.16
62847;BME280;49477;35.676;139.586;2023-05-20T03:41:33;100375.44;;;26.88;42.53
62847;BME280;49477;35.676;139.586;2023-05-20T03:44:03;100375.10;;;27.21;42.13
62847;BME280;49477;35.676;139.586;2023-05-20T03:46:32;100369.48;;;26.71;43.27
62847;BME280;49477;35.676;139.586;2023-05-20T03:49:01;100369.06;;;26.57;42.92
62847;BME280;49477;35.676;139.586;2023-05-20T03:51:31;100368.91;;;26.92;42.35
62847;BME280;49477;35.676;139.586;2023-05-20T03:54:00;100366.20;;;27.26;41.57
62847;BME280;49477;35.676;139.586;2023-05-20T03:56:30;100360.53;;;27.03;42.38
62847;BME280;49477;35.676;139.586;2023-05-20T03:58:59;100361.92;;;26.69;42.11
62847;BME280;49477;35.676;139.586;2023-05-20T04:01:30;100369.57;;;27.23;42.08
62847;BME280;49477;35.676;139.586;2023-05-20T04:03:59;100371.71;;;27.05;41.53
62847;BME280;49477;35.676;139.586;2023-05-20T04:06:28;100370.39;;;27.17;41.52
62847;BME280;49477;35.676;139.586;2023-05-20T04:08:58;100368.95;;;27.25;41.54
62847;BME280;49477;35.676;139.586;2023-05-20T04:11:27;100364.43;;;27.28;40.93
62847;BME280;49477;35.676;139.586;2023-05-20T04:13:57;100362.03;;;27.28;41.15
62847;BME280;49477;35.676;139.586;2023-05-20T04:16:28;100357.17;;;27.51;40.99
62847;BME280;49477;35.676;139.586;2023-05-20T04:18:58;100353.99;;;27.03;41.60
62847;BME280;49477;35.676;139.586;2023-05-20T04:21:28;100356.31;;;26.84;41.62
62847;BME280;49477;35.676;139.586;2023-05-20T04:23:57;100355.66;;;27.12;41.42
62847;BME280;49477;35.676;139.586;2023-05-20T04:26:26;100356.08;;;27.44;40.56
62847;BME280;49477;35.676;139.586;2023-05-20T04:28:56;100355.96;;;27.58;40.49
62847;BME280;49477;35.676;139.586;2023-05-20T04:31:25;100356.68;;;27.29;40.97
62847;BME280;49477;35.676;139.586;2023-05-20T04:33:55;100355.62;;;27.57;40.40
62847;BME280;49477;35.676;139.586;2023-05-20T04:36:25;100352.09;;;27.63;40.32
62847;BME280;49477;35.676;139.586;2023-05-20T04:38:54;100351.84;;;27.46;40.53
62847;BME280;49477;35.676;139.586;2023-05-20T04:41:24;100351.37;;;27.79;39.93
62847;BME280;49477;35.676;139.586;2023-05-20T04:43:53;100352.35;;;27.28;40.71
62847;BME280;49477;35.676;139.586;2023-05-20T04:46:22;100351.25;;;27.52;40.34
62847;BME280;49477;35.676;139.586;2023-05-20T04:48:52;100351.68;;;27.33;40.51
62847;BME280;49477;35.676;139.586;2023-05-20T04:51:22;100347.73;;;27.83;39.74
62847;BME280;49477;35.676;139.586;2023-05-20T04:53:51;100355.43;;;27.60;40.11
62847;BME280;49477;35.676;139.586;2023-05-20T04:56:21;100349.76;;;27.68;39.93
62847;BME280;49477;35.676;139.586;2023-05-20T04:58:50;100346.31;;;27.71;39.92
62847;BME280;49477;35.676;139.586;2023-05-20T05:01:20;100345.92;;;27.85;39.63
62847;BME280;49477;35.676;139.586;2023-05-20T05:03:49;100355.98;;;27.66;40.06
62847;BME280;49477;35.676;139.586;2023-05-20T05:06:19;100364.10;;;27.62;40.06
62847;BME280;49477;35.676;139.586;2023-05-20T05:08:48;100365.37;;;27.97;39.48
62847;BME280;49477;35.676;139.586;2023-05-20T05:11:18;100361.72;;;28.13;39.10
62847;BME280;49477;35.676;139.586;2023-05-20T05:13:47;100356.62;;;27.92;39.76
62847;BME280;49477;35.676;139.586;2023-05-20T05:16:16;100358.50;;;28.00;39.75
62847;BME280;49477;35.676;139.586;2023-05-20T05:18:46;100355.57;;;27.96;39.51
62847;BME280;49477;35.676;139.586;2023-05-20T05:21:15;100356.76;;;27.76;39.77
62847;BME280;49477;35.676;139.586;2023-05-20T05:23:45;100364.28;;;27.44;39.80
62847;BME280;49477;35.676;139.586;2023-05-20T05:26:14;100363.80;;;27.66;39.57
62847;BME280;49477;35.676;139.586;2023-05-20T05:28:45;100356.30;;;27.62;39.21
62847;BME280;49477;35.676;139.586;2023-05-20T05:31:14;100351.25;;;27.41;39.40
62847;BME280;49477;35.676;139.586;2023-05-20T05:33:44;100346.02;;;27.66;39.33
62847;BME280;49477;35.676;139.586;2023-05-20T05:36:14;100347.22;;;27.49;39.46
62847;BME280;49477;35.676;139.586;2023-05-20T05:38:43;100342.46;;;27.77;39.04
62847;BME280;49477;35.676;139.586;2023-05-20T05:41:12;100341.39;;;27.67;39.19
62847;BME280;49477;35.676;139.586;2023-05-20T05:43:47;100345.31;;;27.65;39.41
62847;BME280;49477;35.676;139.586;2023-05-20T05:46:16;100351.33;;;27.74;39.37
62847;BME280;49477;35.676;139.586;2023-05-20T05:48:46;100357.88;;;27.87;39.19
62847;BME280;49477;35.676;139.586;2023-05-20T05:51:15;100363.01;;;27.86;38.81
62847;BME280;49477;35.676;139.586;2023-05-20T05:53:45;100367.56;;;27.80;39.01
62847;BME280;49477;35.676;139.586;2023-05-20T05:56:14;100366.27;;;27.89;38.78
62847;BME280;49477;35.676;139.586;2023-05-20T05:58:52;100366.95;;;27.81;39.16
62847;BME280;49477;35.676;139.586;2023-05-20T06:01:22;100368.32;;;27.97;38.63
62847;BME280;49477;35.676;139.586;2023-05-20T06:03:51;100372.03;;;27.58;39.10
62847;BME280;49477;35.676;139.586;2023-05-20T06:06:21;100377.45;;;27.69;39.34
62847;BME280;49477;35.676;139.586;2023-05-20T06:08:50;100378.03;;;27.59;39.14
62847;BME280;49477;35.676;139.586;2023-05-20T06:11:20;100378.23;;;28.23;38.51
62847;BME280;49477;35.676;139.586;2023-05-20T06:13:49;100370.72;;;27.67;39.02
62847;BME280;49477;35.676;139.586;2023-05-20T06:16:19;100372.80;;;27.87;38.79
62847;BME280;49477;35.676;139.586;2023-05-20T06:18:48;100373.50;;;27.76;38.85
62847;BME280;49477;35.676;139.586;2023-05-20T06:21:18;100377.07;;;27.78;38.94
62847;BME280;49477;35.676;139.586;2023-05-20T06:23:47;100379.46;;;27.93;38.68
62847;BME280;49477;35.676;139.586;2023-05-20T06:26:16;100380.28;;;27.34;39.03
62847;BME280;49477;35.676;139.586;2023-05-20T06:28:46;100375.34;;;27.69;38.67
62847;BME280;49477;35.676;139.586;2023-05-20T06:31:16;100370.64;;;27.97;38.35
62847;BME280;49477;35.676;139.586;2023-05-20T06:33:45;100371.43;;;28.08;38.44
62847;BME280;49477;35.676;139.586;2023-05-20T06:36:16;100369.92;;;27.85;38.07
62847;BME280;49477;35.676;139.586;2023-05-20T06:38:45;100371.35;;;28.05;38.33
62847;BME280;49477;35.676;139.586;2023-05-20T06:41:14;100372.77;;;27.91;38.48
62847;BME280;49477;35.676;139.586;2023-05-20T06:43:44;100371.22;;;28.14;38.23
62847;BME280;49477;35.676;139.586;2023-05-20T06:46:13;100367.64;;;28.31;38.16
62847;BME280;49477;35.676;139.586;2023-05-20T06:48:43;100361.01;;;28.08;38.31
62847;BME280;49477;35.676;139.586;2023-05-20T06:51:12;100359.56;;;27.87;38.09
62847;BME280;49477;35.676;139.586;2023-05-20T06:53:42;100361.57;;;28.37;37.80
62847;BME280;49477;35.676;139.586;2023-05-20T06:56:18;100367.24;;;27.91;37.99
62847;BME280;49477;35.676;139.586;2023-05-20T06:58:47;100370.41;;;28.42;37.61
62847;BME280;49477;35.676;139.586;2023-05-20T07:01:16;100370.26;;;28.24;37.94
62847;BME280;49477;35.676;139.586;2023-05-20T07:03:46;100368.93;;;28.34;37.86
62847;BME280;49477;35.676;139.586;2023-05-20T07:06:15;100370.74;;;28.36;37.69
62847;BME280;49477;35.676;139.586;2023-05-20T07:08:45;100370.97;;;28.00;37.72
62847;BME280;49477;35.676;139.586;2023-05-20T07:11:15;100370.39;;;28.41;37.79
62847;BME280;49477;35.676;139.586;2023-05-20T07:13:44;100371.21;;;28.10;37.44
62847;BME280;49477;35.676;139.586;2023-05-20T07:16:14;100370.68;;;28.31;37.25
62847;BME280;49477;35.676;139.586;2023-05-20T07:18:44;100373.85;;;28.20;37.77
62847;BME280;49477;35.676;139.586;2023-05-20T07:21:14;100374.20;;;27.92;37.72
62847;BME280;49477;35.676;139.586;2023-05-20T07:23:43;100374.52;;;28.14;37.42
62847;BME280;49477;35.676;139.586;2023-05-20T07:26:13;100377.86;;;28.33;37.77
62847;BME280;49477;35.676;139.586;2023-05-20T07:28:46;100380.72;;;28.60;37.34
62847;BME280;49477;35.676;139.586;2023-05-20T07:31:15;100383.28;;;28.08;37.61
62847;BME280;49477;35.676;139.586;2023-05-20T07:33:44;100379.51;;;28.53;37.25
62847;BME280;49477;35.676;139.586;2023-05-20T07:36:13;100381.17;;;28.35;37.58
62847;BME280;49477;35.676;139.586;2023-05-20T07:38:43;100376.58;;;28.28;37.24
62847;BME280;49477;35.676;139.586;2023-05-20T07:41:12;100385.39;;;28.08;37.56
62847;BME280;49477;35.676;139.586;2023-05-20T07:43:42;100394.72;;;28.12;37.29
62847;BME280;49477;35.676;139.586;2023-05-20T07:46:11;100396.64;;;28.35;37.36
62847;BME280;49477;35.676;139.586;2023-05-20T07:48:41;100396.27;;;28.28;37.36
62847;BME280;49477;35.676;139.586;2023-05-20T07:51:11;100393.57;;;28.08;37.32
62847;BME280;49477;35.676;139.586;2023-05-20T07:53:41;100393.80;;;28.56;37.31
62847;BME280;49477;35.676;139.586;2023-05-20T07:56:10;100400.23;;;28.16;37.28
62847;BME280;49477;35.676;139.586;2023-05-20T07:58:42;100404.84;;;28.48;37.31
62847;BME280;49477;35.676;139.586;2023-05-20T08:01:11;100406.56;;;28.36;36.91
62847;BME280;49477;35.676;139.586;2023-05-20T08:03:42;100407.68;;;28.11;37.20
62847;BME280;49477;35.676;139.586;2023-05-20T08:06:11;100405.45;;;28.18;37.27
62847;BME280;49477;35.676;139.586;2023-05-20T08:08:40;100401.86;;;27.45;37.83
62847;BME280;49477;35.676;139.586;2023-05-20T08:11:10;100403.31;;;27.45;37.72
62847;BME280;49477;35.676;139.586;2023-05-20T08:13:42;100404.40;;;27.93;37.23
62847;BME280;49477;35.676;139.586;2023-05-20T08:16:12;100403.54;;;27.89;37.28
62847;BME280;49477;35.676;139.586;2023-05-20T08:18:41;100404.51;;;27.86;37.46
62847;BME280;49477;35.676;139.586;2023-05-20T08:21:12;100404.40;;;28.00;37.15
62847;BME280;49477;35.676;139.586;2023-05-20T08:23:41;100403.58;;;27.51;37.31
62847;BME280;49477;35.676;139.586;2023-05-20T08:26:11;100398.19;;;27.51;37.24
62847;BME280;49477;35.676;139.586;2023-05-20T08:28:49;100397.67;;;28.42;36.74
62847;BME280;49477;35.676;139.586;2023-05-20T08:31:18;100393.39;;;28.22;36.62
62847;BME280;49477;35.676;139.586;2023-05-20T08:33:48;100390.86;;;27.88;36.75
62847;BME280;49477;35.676;139.586;2023-05-20T08:36:19;100396.49;;;28.01;36.77
62847;BME280;49477;35.676;139.586;2023-05-20T08:38:50;100393.81;;;27.92;36.83
62847;BME280;49477;35.676;139.586;2023-05-20T08:41:20;100389.95;;;27.86;36.49
62847;BME280;49477;35.676;139.586;2023-05-20T08:43:51;100393.44;;;27.73;36.49
62847;BME280;49477;35.676;139.586;2023-05-20T08:46:22;100398.46;;;28.15;36.17
62847;BME280;49477;35.676;139.586;2023-05-20T08:48:51;100407.49;;;27.52;36.68
62847;BME280;49477;35.676;139.586;2023-05-20T08:51:21;100404.83;;;27.73;36.49
62847;BME280;49477;35.676;139.586;2023-05-20T08:53:53;100408.87;;;27.68;36.23
62847;BME280;49477;35.676;139.586;2023-05-20T08:56:22;100413.78;;;27.59;36.34
62847;BME280;49477;35.676;139.586;2023-05-20T08:58:51;100412.57;;;27.79;36.24
62847;BME280;49477;35.676;139.586;2023-05-20T09:01:23;100409.78;;;27.74;36.57
62847;BME280;49477;35.676;139.586;2023-05-20T09:03:53;100411.82;;;27.70;36.43
62847;BME280;49477;35.676;139.586;2023-05-20T09:06:23;100414.96;;;27.94;36.39
62847;BME280;49477;35.676;139.586;2023-05-20T09:08:52;100413.99;;;27.48;36.73
62847;BME280;49477;35.676;139.586;2023-05-20T09:11:43;100419.23;;;27.52;37.00
62847;BME280;49477;35.676;139.586;2023-05-20T09:14:13;100417.61;;;27.44;36.85
62847;BME280;49477;35.676;139.586;2023-05-20T09:16:42;100421.05;;;27.46;37.14
62847;BME280;49477;35.676;139.586;2023-05-20T09:19:11;100426.44;;;27.23;37.15
62847;BME280;49477;35.676;139.586;2023-05-20T09:21:42;100436.86;;;27.66;36.95
62847;BME280;49477;35.676;139.586;2023-05-20T09:24:11;100442.69;;;27.43;37.41
62847;BME280;49477;35.676;139.586;2023-05-20T09:26:41;100442.68;;;27.49;37.58
62847;BME280;49477;35.676;139.586;2023-05-20T09:29:10;100447.07;;;27.11;38.00
62847;BME280;49477;35.676;139.586;2023-05-20T09:31:40;100447.27;;;27.16;37.87
62847;BME280;49477;35.676;139.586;2023-05-20T09:34:09;100450.85;;;27.16;38.14
62847;BME280;49477;35.676;139.586;2023-05-20T09:36:40;100453.40;;;26.75;38.37
62847;BME280;49477;35.676;139.586;2023-05-20T09:39:21;100456.26;;;27.15;37.86
62847;BME280;49477;35.676;139.586;2023-05-20T09:41:56;100466.43;;;27.03;38.22
62847;BME280;49477;35.676;139.586;2023-05-20T09:44:29;100470.73;;;27.00;38.21
62847;BME280;49477;35.676;139.586;2023-05-20T09:46:59;100473.99;;;26.64;38.75
62847;BME280;49477;35.676;139.586;2023-05-20T09:49:29;100480.64;;;26.53;39.05
62847;BME280;49477;35.676;139.586;2023-05-20T09:52:02;100484.97;;;26.40;38.89
62847;BME280;49477;35.676;139.586;2023-05-20T09:54:32;100490.69;;;26.63;39.24
62847;BME280;49477;35.676;139.586;2023-05-20T09:57:01;100496.49;;;26.93;38.70
62847;BME280;49477;35.676;139.586;2023-05-20T09:59:31;100498.68;;;26.59;39.08
62847;BME280;49477;35.676;139.586;2023-05-20T10:02:01;100503.88;;;26.50;38.58
62847;BME280;49477;35.676;139.586;2023-05-20T10:04:31;100505.24;;;26.97;38.61
62847;BME280;49477;35.676;139.586;2023-05-20T10:07:25;100506.80;;;26.57;38.81
62847;BME280;49477;35.676;139.586;2023-05-20T10:10:07;100507.94;;;27.07;39.48
62847;BME280;49477;35.676;139.586;2023-05-20T10:12:44;100510.70;;;26.73;39.66
62847;BME280;49477;35.676;139.586;2023-05-20T10:15:25;100513.83;;;26.76;39.73
62847;BME280;49477;35.676;139.586;2023-05-20T10:18:03;100517.74;;;26.96;39.43
62847;BME280;49477;35.676;139.586;2023-05-20T10:20:45;100523.04;;;27.14;39.22
62847;BME280;49477;35.676;139.586;2023-05-20T10:23:26;100525.96;;;26.62;39.81
62847;BME280;49477;35.676;139.586;2023-05-20T10:25:57;100532.48;;;26.74;39.60
62847;BME280;49477;35.676;139.586;2023-05-20T10:28:31;100532.58;;;26.98;39.69
62847;BME280;49477;35.676;139.586;2023-05-20T10:31:01;100542.54;;;26.69;39.60
62847;BME280;49477;35.676;139.586;2023-05-20T10:33:41;100543.60;;;26.87;39.71
62847;BME280;49477;35.676;139.586;2023-05-20T10:36:12;100549.39;;;26.36;40.01
62847;BME280;49477;35.676;139.586;2023-05-20T10:38:53;100554.41;;;26.45;40.11
62847;BME280;49477;35.676;139.586;2023-05-20T10:41:24;100557.67;;;26.25;40.02
62847;BME280;49477;35.676;139.586;2023-05-20T10:44:02;100556.73;;;26.05;40.25
62847;BME280;49477;35.676;139.586;2023-05-20T10:46:32;100561.10;;;25.95;40.75
62847;BME280;49477;35.676;139.586;2023-05-20T10:49:02;100559.73;;;26.02;40.27
62847;BME280;49477;35.676;139.586;2023-05-20T10:51:34;100562.68;;;25.99;40.63
62847;BME280;49477;35.676;139.586;2023-05-20T10:54:03;100566.30;;;26.01;40.47
62847;BME280;49477;35.676;139.586;2023-05-20T10:56:33;100574.09;;;25.66;40.56
62847;BME280;49477;35.676;139.586;2023-05-20T10:59:03;100574.44;;;25.61;40.69
62847;BME280;49477;35.676;139.586;2023-05-20T11:01:32;100571.98;;;25.60;40.55
62847;BME280;49477;35.676;139.586;2023-05-20T11:04:02;100574.55;;;25.26;41.06
62847;BME280;49477;35.676;139.586;2023-05-20T11:06:32;100574.23;;;25.89;40.36
62847;BME280;49477;35.676;139.586;2023-05-20T11:09:05;100573.00;;;25.99;40.22
62847;BME280;49477;35.676;139.586;2023-05-20T11:11:34;100574.68;;;26.07;40.16
62847;BME280;49477;35.676;139.586;2023-05-20T11:14:04;100575.86;;;25.53;40.28
62847;BME280;49477;35.676;139.586;2023-05-20T11:16:33;100578.48;;;25.67;40.70
62847;BME280;49477;35.676;139.586;2023-05-20T11:19:02;100586.03;;;26.01;40.17
62847;BME280;49477;35.676;139.586;2023-05-20T11:21:31;100592.60;;;25.97;40.35
62847;BME280;49477;35.676;139.586;2023-05-20T11:24:01;100606.61;;;26.06;40.26
62847;BME280;49477;35.676;139.586;2023-05-20T11:26:31;100612.51;;;25.92;40.43
62847;BME280;49477;35.676;139.586;2023-05-20T11:29:01;100614.96;;;25.42;40.72
62847;BME280;49477;35.676;139.586;2023-05-20T11:31:31;100617.31;;;25.89;40.50
62847;BME280;49477;35.676;139.586;2023-05-20T11:34:00;100622.17;;;26.11;40.38
62847;BME280;49477;35.676;139.586;2023-05-20T11:36:30;100627.10;;;25.82;40.31
62847;BME280;49477;35.676;139.586;2023-05-20T11:39:00;100630.38;;;25.71;40.84
62847;BME280;49477;35.676;139.586;2023-05-20T11:41:29;100636.80;;;26.16;40.23
62847;BME280;49477;35.676;139.586;2023-05-20T11:43:59;100637.12;;;25.99;40.44
62847;BME280;49477;35.676;139.586;2023-05-20T11:46:28;100638.13;;;26.33;39.84
62847;BME280;49477;35.676;139.586;2023-05-20T11:48:58;100642.58;;;26.11;39.99
62847;BME280;49477;35.676;139.586;2023-05-20T11:51:29;100642.84;;;26.03;40.25
62847;BME280;49477;35.676;139.586;2023-05-20T11:54:01;100641.19;;;26.24;40.03
62847;BME280;49477;35.676;139.586;2023-05-20T11:56:30;100636.87;;;25.80;40.99
62847;BME280;49477;35.676;139.586;2023-05-20T11:59:00;100636.56;;;25.81;40.59
62847;BME280;49477;35.676;139.586;2023-05-20T12:01:32;100634.48;;;26.00;40.34
62847;BME280;49477;35.676;139.586;2023-05-20T12:04:01;100638.33;;;25.97;40.51
62847;BME280;49477;35.676;139.586;2023-05-20T12:06:30;100638.37;;;25.95;40.45
62847;BME280;49477;35.676;139.586;2023-05-20T12:09:02;100639.62;;;26.07;40.24
62847;BME280;49477;35.676;139.586;2023-05-20T12:11:32;100639.80;;;25.78;40.78
62847;BME280;49477;35.676;139.586;2023-05-20T12:14:01;100636.18;;;25.55;40.62
62847;BME280;49477;35.676;139.586;2023-05-20T12:16:31;100637.03;;;25.62;41.09
62847;BME280;49477;35.676;139.586;2023-05-20T12:19:01;100636.49;;;26.25;40.51
62847;BME280;49477;35.676;139.586;2023-05-20T12:21:30;100635.65;;;26.10;40.79
62847;BME280;49477;35.676;139.586;2023-05-20T12:23:59;100633.34;;;25.90;40.89
62847;BME280;49477;35.676;139.586;2023-05-20T12:26:29;100634.69;;;26.10;40.45
62847;BME280;49477;35.676;139.586;2023-05-20T12:28:59;100634.24;;;25.55;41.07
62847;BME280;49477;35.676;139.586;2023-05-20T12:31:28;100634.50;;;25.70;40.87
62847;BME280;49477;35.676;139.586;2023-05-20T12:33:58;100636.70;;;25.88;40.79
62847;BME280;49477;35.676;139.586;2023-05-20T12:36:27;100641.27;;;25.98;40.81
62847;BME280;49477;35.676;139.586;2023-05-20T12:38:57;100646.12;;;25.41;41.15
62847;BME280;49477;35.676;139.586;2023-05-20T12:41:26;100652.46;;;25.87;40.51
62847;BME280;49477;35.676;139.586;2023-05-20T12:43:56;100657.44;;;25.67;40.85
62847;BME280;49477;35.676;139.586;2023-05-20T12:46:25;100657.85;;;25.53;41.21